AIRPORT ID: U76

DATE: 2024-05-27 ZULU TIME: 20.55 LOCAL TIME: 14.55


METAR KU76 272055Z AUTO 00000KT 10SM 25/04 A3008

ALTIMETER: A3008 Q1019

DENSITY ALT: 4800 Ft

WIND DIRECT: 160

WIND SPEED: 2 Gust

WIND CONDITIONS:

VISIBILTY: 10SM 9999M

TEMPERATURE: 77 F 25 C

DEW POINT: 40 F 4 C

HUMID: 27%

LCL: Above 5,000 feet

RADIO CHECK: 0

ADVISARIES: 4

GREETINGS: 0

CONVERSATIONS: 2